createdAt,value
2022-11-29T00:01:19.879Z,31.48
2022-11-29T00:04:01.403Z,32.90
2022-11-29T00:07:08.172Z,36.38
2022-11-29T00:10:08.122Z,35.15
2022-11-29T00:16:13.045Z,36.50
2022-11-29T00:19:08.025Z,36.22
2022-11-29T00:21:37.047Z,33.95
2022-11-29T00:24:10.347Z,35.17
2022-11-29T00:27:02.587Z,40.15
2022-11-29T00:29:31.051Z,35.53
2022-11-29T00:31:57.673Z,40.50
2022-11-29T00:34:24.493Z,35.92
2022-11-29T00:37:13.367Z,36.17
2022-11-29T00:39:41.053Z,43.35
2022-11-29T00:42:08.055Z,35.72
2022-11-29T00:47:44.218Z,35.75
2022-11-29T00:50:31.807Z,37.25
2022-11-29T00:52:58.310Z,37.53
2022-11-29T00:55:25.066Z,35.53
2022-11-29T00:57:51.866Z,33.35
2022-11-29T01:00:18.669Z,36.95
2022-11-29T01:03:20.047Z,41.70
2022-11-29T01:05:50.161Z,37.67
2022-11-29T01:08:17.464Z,36.03
2022-11-29T01:11:06.835Z,36.50
2022-11-29T01:14:03.243Z,38.92
2022-11-29T01:16:31.879Z,37.20
2022-11-29T01:19:11.188Z,41.38
2022-11-29T01:21:38.059Z,41.00
2022-11-29T01:26:52.578Z,47.00
2022-11-29T01:29:19.353Z,42.20
2022-11-29T01:31:46.002Z,40.75
2022-11-29T01:34:12.626Z,40.05
2022-11-29T01:36:57.790Z,39.15
2022-11-29T01:39:24.721Z,43.42
2022-11-29T01:42:19.596Z,35.95
2022-11-29T01:45:29.223Z,47.25
2022-11-29T01:47:59.294Z,40.10
2022-11-29T01:50:26.038Z,42.38
2022-11-29T01:53:00.866Z,45.65
2022-11-29T01:55:28.264Z,36.75
2022-11-29T01:58:00.433Z,38.30
2022-11-29T02:00:28.728Z,38.50
2022-11-29T02:03:08.368Z,37.83
2022-11-29T02:05:36.599Z,39.42
2022-11-29T02:08:03.658Z,49.00
2022-11-29T02:14:07.356Z,36.65
2022-11-29T02:17:21.486Z,45.67
2022-11-29T02:20:28.690Z,46.90
2022-11-29T02:23:31.170Z,36.83
2022-11-29T02:26:20.237Z,41.17
2022-11-29T02:29:08.281Z,44.22
2022-11-29T02:32:04.366Z,42.20
2022-11-29T02:35:06.149Z,39.45
2022-11-29T02:37:57.380Z,40.85
2022-11-29T02:41:14.333Z,44.97
2022-11-29T02:44:19.653Z,35.33
2022-11-29T02:47:13.716Z,37.30
2022-11-29T02:49:52.159Z,49.05
2022-11-29T02:52:27.829Z,41.08
2022-11-29T02:55:36.062Z,45.20
2022-11-29T02:58:13.883Z,43.83
2022-11-29T03:04:08.180Z,40.08
2022-11-29T03:07:55.245Z,40.45
2022-11-29T03:10:51.375Z,46.35
2022-11-29T03:13:47.794Z,44.10
2022-11-29T03:19:24.152Z,32.40
2022-11-29T03:22:14.980Z,37.25
2022-11-29T03:25:46.317Z,44.10
2022-11-29T03:29:19.460Z,46.72
2022-11-29T03:32:15.642Z,44.33
2022-11-29T03:38:59.499Z,44.55
2022-11-29T03:42:06.374Z,42.50
2022-11-29T03:45:25.753Z,41.53
2022-11-29T03:48:18.699Z,36.40
2022-11-29T03:51:19.423Z,36.78
2022-11-29T03:54:15.491Z,44.13
2022-11-29T03:57:17.545Z,38.08
2022-11-29T03:59:53.586Z,39.58
2022-11-29T04:02:33.320Z,41.53
2022-11-29T04:05:28.343Z,40.58
2022-11-29T04:08:13.269Z,40.83
2022-11-29T04:11:18.095Z,42.03
2022-11-29T04:14:13.933Z,38.10
2022-11-29T04:17:31.914Z,46.25
2022-11-29T04:20:41.143Z,41.95
2022-11-29T04:23:59.930Z,43.55
2022-11-29T04:29:54.800Z,47.03
2022-11-29T04:33:02.870Z,49.50
2022-11-29T04:35:46.378Z,44.13
2022-11-29T04:39:12.356Z,43.17
2022-11-29T04:44:25.884Z,39.45
2022-11-29T04:47:02.977Z,36.95
2022-11-29T04:50:12.861Z,44.08
2022-11-29T04:53:25.872Z,38.60
2022-11-29T04:56:18.587Z,45.63
2022-11-29T04:59:23.454Z,39.53
2022-11-29T05:02:35.978Z,37.28
2022-11-29T05:08:05.735Z,46.08
2022-11-29T05:11:27.192Z,41.20
2022-11-29T05:14:24.977Z,44.70
2022-11-29T05:17:24.808Z,49.90
2022-11-29T05:20:10.675Z,43.17
2022-11-29T05:23:16.486Z,46.63
2022-11-29T05:26:08.815Z,53.50
2022-11-29T05:29:02.772Z,54.60
2022-11-29T05:31:45.150Z,45.38
2022-11-29T05:34:34.548Z,44.10
2022-11-29T05:37:39.915Z,42.63
2022-11-29T05:40:25.247Z,38.97
2022-11-29T05:43:18.881Z,51.30
2022-11-29T05:46:10.037Z,46.15
2022-11-29T05:49:02.022Z,52.53
2022-11-29T05:51:53.099Z,50.85
2022-11-29T05:55:12.686Z,44.15
2022-11-29T05:58:17.509Z,54.95
2022-11-29T06:01:06.161Z,45.03
2022-11-29T06:03:38.883Z,55.10
2022-11-29T06:06:19.451Z,49.60
2022-11-29T06:09:31.059Z,46.35
2022-11-29T06:12:05.436Z,58.67
2022-11-29T06:15:14.155Z,54.28
2022-11-29T06:18:10.408Z,41.95
2022-11-29T06:25:09.167Z,43.75
2022-11-29T06:28:08.805Z,60.05
2022-11-29T06:31:01.032Z,51.78
2022-11-29T06:33:48.929Z,43.10
2022-11-29T06:36:21.068Z,51.63
2022-11-29T06:39:12.956Z,43.90
2022-11-29T06:41:39.558Z,44.75
2022-11-29T06:44:35.836Z,47.88
2022-11-29T06:53:26.069Z,53.38
2022-11-29T06:56:01.315Z,45.80
2022-11-29T07:01:53.248Z,44.08
2022-11-29T07:05:13.352Z,54.13
2022-11-29T07:07:41.829Z,46.35
2022-11-29T07:10:37.362Z,48.60
2022-11-29T07:13:27.462Z,40.78
2022-11-29T07:16:06.863Z,51.10
2022-11-29T07:26:10.577Z,42.88
2022-11-29T07:29:15.035Z,46.45
2022-11-29T08:16:37.519Z,41.97
2022-11-29T08:19:11.017Z,51.95
2022-11-29T08:27:44.235Z,46.42
2022-11-29T08:30:18.106Z,51.53
2022-11-29T09:37:25.440Z,48.05
2022-11-29T09:41:09.594Z,49.92
2022-11-29T10:16:26.093Z,48.83
2022-11-29T10:33:42.656Z,52.30
2022-11-29T10:40:23.303Z,48.55
2022-11-29T10:43:13.474Z,51.42
2022-11-29T10:46:41.336Z,49.97
2022-11-29T10:49:35.077Z,53.30
2022-11-29T11:09:52.439Z,49.15
2022-11-29T11:13:04.984Z,67.88
2022-11-29T11:15:49.081Z,64.53
2022-11-29T11:25:26.647Z,47.25
2022-11-29T11:28:21.627Z,63.63
2022-11-29T11:31:17.047Z,62.55
2022-11-29T11:33:59.246Z,67.10
2022-11-29T11:37:25.721Z,81.68
2022-11-29T11:40:29.301Z,123.07
2022-11-29T11:43:19.922Z,73.57
2022-11-29T11:46:03.466Z,64.70
2022-11-29T11:48:43.349Z,60.65
2022-11-29T11:52:00.866Z,60.20
2022-11-29T11:54:33.648Z,56.22
2022-11-29T12:01:38.111Z,62.70
2022-11-29T12:04:48.100Z,54.55
2022-11-29T12:07:59.735Z,57.88
2022-11-29T12:10:49.825Z,62.78
2022-11-29T12:18:39.671Z,52.08
2022-11-29T14:01:05.461Z,48.97
2022-11-29T16:14:51.575Z,53.80
2022-11-29T17:05:32.815Z,74.50
2022-11-29T18:12:04.228Z,62.10
2022-11-29T18:25:36.837Z,58.85
2022-11-29T18:28:34.246Z,70.00
2022-11-29T18:31:57.428Z,68.28
2022-11-29T18:51:40.184Z,57.85
2022-11-29T18:58:35.000Z,63.90
2022-11-29T19:01:57.737Z,66.25
2022-11-29T19:29:12.254Z,71.60
2022-11-29T19:32:08.133Z,55.80
2022-11-29T19:39:33.190Z,61.38
2022-11-29T19:45:53.102Z,59.83
2022-11-29T19:53:35.187Z,63.05
2022-11-29T20:01:12.753Z,100.38
2022-11-29T20:26:17.014Z,67.20
2022-11-29T20:59:51.579Z,55.55
2022-11-29T21:16:32.704Z,66.55
2022-11-29T21:37:38.271Z,56.47
2022-11-29T21:44:06.809Z,60.88
2022-11-29T21:47:27.001Z,63.85
2022-11-29T21:49:58.744Z,64.82
2022-11-29T21:52:53.413Z,64.88
2022-11-29T21:55:51.576Z,64.10
2022-11-29T22:01:45.298Z,69.70
2022-11-29T22:04:25.467Z,63.13
2022-11-29T22:07:37.071Z,73.13
2022-11-29T22:10:36.415Z,70.65
2022-11-29T22:13:16.950Z,64.53
2022-11-29T22:15:47.089Z,67.00
2022-11-29T22:22:02.409Z,62.28
2022-11-29T22:24:39.502Z,58.42
2022-11-29T22:27:10.981Z,62.05
2022-11-29T22:29:48.957Z,66.80
2022-11-29T22:32:22.590Z,59.47
2022-11-29T22:34:49.636Z,76.28
2022-11-29T22:40:07.212Z,57.00
2022-11-29T22:42:34.286Z,75.10
2022-11-29T22:49:00.889Z,65.38
2022-11-29T22:51:32.788Z,71.65
2022-11-29T22:54:09.547Z,80.03
2022-11-29T22:56:53.827Z,67.10
2022-11-29T22:59:20.907Z,70.97
2022-11-29T23:01:56.842Z,70.13
2022-11-29T23:04:51.314Z,82.40
2022-11-29T23:07:27.588Z,82.95
2022-11-29T23:10:02.531Z,84.18
2022-11-29T23:12:29.790Z,63.47
2022-11-29T23:14:59.588Z,67.80
2022-11-29T23:17:27.169Z,69.25
2022-11-29T23:19:53.788Z,58.08
2022-11-29T23:23:31.976Z,73.30
2022-11-29T23:29:41.828Z,62.42
2022-11-29T23:32:12.400Z,67.95
2022-11-29T23:34:39.026Z,78.07
2022-11-29T23:37:46.330Z,78.65
2022-11-29T23:40:13.971Z,72.43
2022-11-29T23:42:45.098Z,69.18
2022-11-29T23:45:58.888Z,73.68
2022-11-29T23:52:21.067Z,90.70
2022-11-29T23:54:48.103Z,76.05
